Time;durP1;ratioP1;P1;durP2;ratioP2;P2;SDS_P1;SDS_P2;PMS_P1;PMS_P2;Temp;Humidity;BMP_temperature;BMP_pressure;BME280_temperature;BME280_humidity;BME280_pressure;Samples;Min_cycle;Max_cycle;Signal;HPM_P1;HPM_P2
2022/04/16 07:58:55;;;;;;;26.83;21.40;;;;;;;11.31;76.44;103087.81;5217535;28;20546;-72
2022/04/16 08:01:27;;;;;;;24.48;21.85;;;;;;;11.25;74.26;103088.78;5217864;28;20092;-73
2022/04/16 08:03:59;;;;;;;24.48;21.85;;;;;;;11.42;76.63;103086.13;5215489;28;20038;-72
2022/04/16 08:06:35;;;;;;;24.27;21.60;;;;;;;11.40;74.76;103083.59;5203985;28;20022;-74
2022/04/16 08:09:07;;;;;;;24.92;22.38;;;;;;;11.34;73.17;103086.50;5197590;28;20486;-73
2022/04/16 08:11:38;;;;;;;23.90;20.77;;;;;;;11.28;72.90;103093.84;5197563;28;20038;-73
2022/04/16 08:14:09;;;;;;;21.75;19.25;;;;;;;11.43;72.67;103090.59;5197029;28;20046;-73
2022/04/16 08:16:40;;;;;;;21.52;19.27;;;;;;;11.45;72.50;103094.84;5197391;28;20047;-73
2022/04/16 08:19:12;;;;;;;23.73;20.35;;;;;;;11.53;72.45;103090.84;5196699;28;20862;-77
2022/04/16 08:21:44;;;;;;;23.50;20.50;;;;;;;11.66;71.99;103087.00;5197316;28;20038;-74
2022/04/16 08:27:02;;;;;;;21.13;18.90;;;;;;;11.96;71.42;103086.84;5212575;28;20042;-73
2022/04/16 08:29:34;;;;;;;21.95;18.15;;;;;;;11.99;70.25;103086.38;5206908;28;20404;-75
2022/04/16 08:32:06;;;;;;;50.10;45.00;;;;;;;12.10;70.63;103096.63;5196844;28;21855;-71
2022/04/16 08:34:37;;;;;;;22.25;19.85;;;;;;;12.04;69.14;103100.38;5205614;28;20037;-73
2022/04/16 08:37:08;;;;;;;17.58;15.68;;;;;;;12.20;69.54;103095.16;5217664;28;20037;-72
2022/04/16 08:39:39;;;;;;;20.15;17.35;;;;;;;12.22;67.82;103095.72;5203242;28;20037;-74
2022/04/16 08:42:11;;;;;;;19.63;17.52;;;;;;;12.27;67.60;103095.84;5213897;28;20045;-78
2022/04/16 08:44:43;;;;;;;18.30;16.05;;;;;;;12.52;71.35;103098.28;5208492;28;20117;-76
2022/04/16 08:47:15;;;;;;;79.70;66.10;;;;;;;12.59;69.69;103102.63;5196577;28;20470;-82
2022/04/16 08:49:46;;;;;;;34.25;29.95;;;;;;;12.57;67.68;103102.00;5216887;28;20026;-75
2022/04/16 08:52:18;;;;;;;18.05;16.15;;;;;;;12.65;66.66;103108.28;5217363;28;20030;-78
2022/04/16 08:54:49;;;;;;;19.60;16.58;;;;;;;12.65;66.46;103103.56;5211109;28;20026;-81
2022/04/16 08:57:21;;;;;;;17.10;15.38;;;;;;;12.71;65.35;103107.31;5211225;28;20361;-81
2022/04/16 08:59:53;;;;;;;18.88;15.90;;;;;;;12.70;65.00;103106.44;5217543;28;20085;-83
2022/04/16 09:02:27;;;;;;;19.52;14.88;;;;;;;12.86;65.61;103095.59;5220777;28;20022;-82
2022/04/16 09:05:05;;;;;;;18.20;15.32;;;;;;;12.92;65.67;103089.03;5219263;28;20022;-84
2022/04/16 09:07:51;;;;;;;16.48;14.73;;;;;;;13.04;65.64;103100.94;5218221;28;20053;-80
2022/04/16 09:10:27;;;;;;;14.43;13.02;;;;;;;13.14;63.97;103097.47;5202279;28;20038;-77
2022/04/16 09:13:00;;;;;;;16.65;14.00;;;;;;;13.21;63.12;103095.38;5193434;28;20062;-81
2022/04/16 09:15:34;;;;;;;16.30;13.00;;;;;;;13.37;63.82;103093.72;5199037;28;20034;-84
2022/04/16 09:18:13;;;;;;;14.10;12.60;;;;;;;13.36;61.85;103097.59;5197277;28;20429;-85
2022/04/16 09:20:44;;;;;;;13.35;11.65;;;;;;;13.34;60.65;103092.28;5195782;28;20031;-83
2022/04/16 09:23:17;;;;;;;13.43;11.00;;;;;;;13.49;60.04;103089.72;5203074;28;20469;-80
2022/04/16 09:25:49;;;;;;;13.15;10.98;;;;;;;13.52;58.54;103088.38;5191328;28;20042;-78
2022/04/16 09:28:21;;;;;;;10.98;9.88;;;;;;;13.63;57.27;103086.63;5184131;28;20039;-77
2022/04/16 09:30:56;;;;;;;11.70;9.35;;;;;;;13.85;58.99;103090.25;5190449;28;20169;-78
2022/04/16 09:33:37;;;;;;;10.50;9.52;;;;;;;13.84;56.76;103085.78;5189832;28;20340;-80
2022/04/16 09:36:08;;;;;;;10.75;9.68;;;;;;;13.79;56.92;103088.50;5188143;28;20035;-76
2022/04/16 09:38:42;;;;;;;11.82;10.63;;;;;;;13.92;57.06;103090.09;5190224;28;20097;-78
2022/04/16 09:41:14;;;;;;;11.77;10.57;;;;;;;13.95;57.27;103083.97;5202394;28;20022;-75
2022/04/16 09:43:45;;;;;;;13.55;11.95;;;;;;;14.02;57.15;103090.22;5202513;28;20033;-76
2022/04/16 09:46:18;;;;;;;13.35;12.02;;;;;;;14.04;56.23;103087.19;5202643;28;20030;-75
2022/04/16 09:48:51;;;;;;;11.88;10.68;;;;;;;14.07;55.70;103086.66;5184618;28;20038;-74
2022/04/16 09:51:24;;;;;;;9.63;7.72;;;;;;;14.21;60.13;103087.09;5181177;28;20031;-75
2022/04/16 09:53:56;;;;;;;6.72;6.07;;;;;;;14.06;52.70;103077.44;5191065;28;20129;-74
2022/04/16 09:56:28;;;;;;;6.38;5.50;;;;;;;14.06;52.46;103079.38;5182797;28;20049;-76
2022/04/16 09:59:02;;;;;;;8.07;5.88;;;;;;;14.19;54.03;103079.00;5182009;28;20101;-77
2022/04/16 10:01:35;;;;;;;7.63;6.22;;;;;;;14.18;51.06;103077.31;5182303;28;20494;-78
2022/04/16 10:04:07;;;;;;;8.25;7.03;;;;;;;14.40;52.81;103073.66;5183452;28;20023;-79
2022/04/16 10:06:40;;;;;;;7.38;5.93;;;;;;;14.27;51.00;103070.16;5182399;28;20042;-79
2022/04/16 10:09:13;;;;;;;7.45;6.75;;;;;;;14.27;52.31;103069.34;5184292;28;20039;-77
2022/04/16 10:14:56;;;;;;;8.93;8.13;;;;;;;14.43;53.80;103061.97;5183090;28;20455;-77
2022/04/16 10:17:42;;;;;;;10.68;8.10;;;;;;;14.60;54.01;103062.75;5184332;28;20431;-76
2022/04/16 10:20:18;;;;;;;11.35;10.23;;;;;;;14.57;52.58;103061.34;5181823;28;20438;-74
2022/04/16 10:22:55;;;;;;;8.65;7.22;;;;;;;14.67;52.21;103063.38;5182328;28;20465;-74
2022/04/16 10:25:40;;;;;;;7.65;6.95;;;;;;;14.71;53.14;103058.94;5181736;28;20054;-75
2022/04/16 10:28:19;;;;;;;8.10;7.30;;;;;;;14.78;51.92;103064.34;5181272;28;20026;-72
2022/04/16 10:30:55;;;;;;;11.77;8.30;;;;;;;14.98;52.62;103074.84;5180856;28;20516;-69
2022/04/16 10:33:27;;;;;;;8.50;7.30;;;;;;;14.98;51.37;103069.25;5180626;28;20035;-70
2022/04/16 10:36:00;;;;;;;7.07;6.45;;;;;;;14.85;49.60;103059.34;5181328;28;20462;-72
2022/04/16 10:38:37;;;;;;;6.22;5.30;;;;;;;14.87;49.45;103065.53;5187858;28;20465;-73
2022/04/16 10:41:25;;;;;;;6.35;5.75;;;;;;;14.91;50.84;103060.28;5200533;28;20041;-71
2022/04/16 10:44:00;;;;;;;7.13;6.43;;;;;;;14.90;49.79;103053.81;5201520;28;20024;-71
2022/04/16 10:46:48;;;;;;;9.13;6.32;;;;;;;14.87;50.57;103061.91;5182176;28;20517;-72
2022/04/16 10:49:24;;;;;;;12.05;10.75;;;;;;;14.85;51.13;103058.50;5180898;28;20038;-72
2022/04/16 10:51:56;;;;;;;7.10;6.40;;;;;;;14.99;49.97;103059.78;5180633;28;20033;-74
2022/04/16 10:54:32;;;;;;;7.47;6.22;;;;;;;14.90;49.08;103062.19;5184707;28;20105;-74
2022/04/16 10:57:07;;;;;;;7.90;6.60;;;;;;;14.87;49.29;103057.13;5181255;28;20047;-74
2022/04/16 10:59:39;;;;;;;10.17;7.00;;;;;;;14.96;54.03;103063.09;5180679;28;20030;-73
2022/04/16 11:02:37;;;;;;;15.48;13.68;;;;;;;15.07;50.85;103062.06;5180312;28;20086;-73
2022/04/16 11:05:09;;;;;;;5.55;4.97;;;;;;;15.09;48.93;103054.28;5178063;28;20467;-70
2022/04/16 11:07:46;;;;;;;11.05;9.80;;;;;;;15.10;47.69;103055.94;5180273;28;20035;-71
2022/04/16 11:10:22;;;;;;;7.28;5.32;;;;;;;15.15;47.54;103058.78;5180332;28;20037;-70
2022/04/16 11:12:54;;;;;;;5.32;4.55;;;;;;;15.13;48.51;103054.56;5190501;28;20026;-72
2022/04/16 11:15:26;;;;;;;6.00;5.50;;;;;;;15.29;47.69;103058.31;5191055;28;20105;-70
2022/04/16 11:17:59;;;;;;;5.25;4.65;;;;;;;15.39;47.54;103064.84;5179796;28;20367;-70
2022/04/16 11:20:31;;;;;;;5.75;5.18;;;;;;;15.28;46.26;103054.69;5180140;28;20023;-70
2022/04/16 11:23:09;;;;;;;8.38;5.65;;;;;;;15.38;46.74;103048.34;5179486;28;20038;-70
2022/04/16 11:34:14;;;;;;;5.55;4.60;;;;;;;15.73;45.56;103058.09;5200469;28;20046;-72
2022/04/16 11:36:52;;;;;;;16.40;14.70;;;;;;;15.71;45.32;103043.53;5199338;28;20130;-72
2022/04/16 11:39:28;;;;;;;6.78;6.07;;;;;;;15.71;47.41;103043.53;5180852;28;20027;-71
2022/04/16 11:42:02;;;;;;;6.72;6.03;;;;;;;15.78;44.96;103036.59;5179940;28;20026;-71
2022/04/16 11:44:41;;;;;;;6.10;5.47;;;;;;;15.93;46.45;103044.22;5179198;28;20052;-71
2022/04/16 11:47:15;;;;;;;6.78;6.03;;;;;;;15.85;45.33;103039.16;5190225;28;20050;-72
2022/04/16 11:49:51;;;;;;;6.38;5.35;;;;;;;15.99;46.50;103043.13;5179862;28;20033;-71
2022/04/16 11:52:30;;;;;;;6.38;5.72;;;;;;;16.07;47.54;103034.19;5183476;28;20034;-71
2022/04/16 11:55:13;;;;;;;6.30;5.47;;;;;;;16.32;46.45;103037.38;5188881;28;20028;-70
2022/04/16 11:57:54;;;;;;;7.55;5.45;;;;;;;16.40;46.42;103023.66;5181431;28;20058;-71
2022/04/16 12:00:28;;;;;;;9.68;7.45;;;;;;;16.25;45.47;103038.44;5179789;28;20027;-72
2022/04/16 12:02:59;;;;;;;8.23;7.43;;;;;;;16.32;44.70;103031.78;5180049;28;20393;-72
2022/04/16 12:05:32;;;;;;;6.82;5.55;;;;;;;16.36;45.17;103028.16;5190858;28;20030;-73
2022/04/16 12:08:07;;;;;;;8.70;6.10;;;;;;;16.48;47.05;103025.91;5188203;28;20031;-70
2022/04/16 12:10:40;;;;;;;6.50;5.90;;;;;;;16.57;44.68;103033.78;5184680;28;20041;-72
2022/04/16 12:13:13;;;;;;;7.75;6.55;;;;;;;16.53;44.58;103033.47;5193692;28;20392;-71
2022/04/16 12:15:46;;;;;;;7.50;6.80;;;;;;;16.64;44.20;103034.34;5188392;28;20042;-71
2022/04/16 12:18:22;;;;;;;35.40;31.80;;;;;;;16.83;45.64;103035.53;5183650;28;20031;-71
2022/04/16 12:20:53;;;;;;;8.70;7.75;;;;;;;16.60;42.85;103034.06;5188092;28;20029;-72
2022/04/16 12:23:25;;;;;;;8.15;7.45;;;;;;;16.76;43.05;103031.28;5183153;28;20454;-73
2022/04/16 12:26:07;;;;;;;8.48;7.00;;;;;;;16.71;43.66;103023.72;5178298;28;20035;-71
2022/04/16 12:28:47;;;;;;;8.15;6.90;;;;;;;16.83;43.41;103027.13;5182957;28;20035;-70
2022/04/16 12:31:26;;;;;;;7.80;7.00;;;;;;;16.82;43.45;103021.78;5182696;28;20027;-71
2022/04/16 12:33:58;;;;;;;7.43;6.63;;;;;;;16.78;43.42;103024.31;5198038;28;20064;-72
2022/04/16 12:36:29;;;;;;;7.25;6.40;;;;;;;16.92;43.47;103027.38;5192358;28;20477;-72
2022/04/16 12:39:00;;;;;;;11.55;10.35;;;;;;;16.99;43.87;103027.13;5198011;28;20026;-72
2022/04/16 12:41:31;;;;;;;7.72;6.75;;;;;;;17.16;42.74;103025.72;5198698;28;20042;-70
2022/04/16 12:44:03;;;;;;;7.40;6.45;;;;;;;17.20;41.85;103025.97;5200475;28;20035;-70
2022/04/16 12:46:34;;;;;;;7.22;6.53;;;;;;;17.29;40.42;103023.47;5202773;28;20034;-71
2022/04/16 12:49:05;;;;;;;6.50;5.80;;;;;;;17.28;39.92;103017.00;5193270;28;20097;-71
2022/04/16 12:51:37;;;;;;;7.50;6.80;;;;;;;17.09;39.93;103021.50;5192887;28;20438;-71
2022/04/16 12:54:08;;;;;;;7.35;6.65;;;;;;;17.28;40.10;103002.13;5186409;28;20044;-70
2022/04/16 12:56:42;;;;;;;13.23;11.60;;;;;;;17.49;39.46;103012.19;5184236;28;20047;-71
2022/04/16 12:59:13;;;;;;;7.03;6.25;;;;;;;17.50;39.78;103013.88;5183178;28;20031;-71
2022/04/16 13:01:45;;;;;;;6.32;5.50;;;;;;;17.57;38.41;103019.19;5182263;28;20037;-72
2022/04/16 13:04:16;;;;;;;6.50;5.90;;;;;;;17.66;37.75;103016.63;5184267;28;20419;-69
2022/04/16 13:06:47;;;;;;;7.43;6.13;;;;;;;17.75;37.73;103017.72;5196877;28;20359;-69
2022/04/16 13:09:18;;;;;;;6.53;5.75;;;;;;;17.70;38.60;103001.75;5191274;28;20030;-71
2022/04/16 13:11:51;;;;;;;6.70;4.72;;;;;;;17.72;36.48;102990.25;5193349;28;20378;-69
2022/04/16 13:14:23;;;;;;;10.60;8.18;;;;;;;17.86;37.52;102994.13;5191730;28;20489;-70
2022/04/16 13:16:55;;;;;;;5.90;5.35;;;;;;;18.05;36.66;102991.53;5186126;28;20039;-68
2022/04/16 13:19:26;;;;;;;6.13;5.53;;;;;;;18.04;37.41;102982.25;5190847;28;20018;-68
2022/04/16 13:21:58;;;;;;;7.15;4.95;;;;;;;18.08;35.14;102996.56;5189514;28;20027;-70
2022/04/16 13:24:29;;;;;;;8.95;6.00;;;;;;;18.15;35.26;102985.88;5198568;28;20085;-73
2022/04/16 13:27:00;;;;;;;5.25;4.75;;;;;;;18.16;35.44;102986.69;5199523;28;20078;-71
2022/04/16 13:29:35;;;;;;;7.40;5.10;;;;;;;18.18;34.76;102990.06;5196734;28;20076;-72
2022/04/16 13:32:08;;;;;;;6.93;4.78;;;;;;;18.32;35.23;102974.22;5202519;28;20026;-72
2022/04/16 13:34:40;;;;;;;6.43;5.82;;;;;;;18.39;34.64;102980.38;5202669;28;20029;-71
2022/04/16 13:37:12;;;;;;;6.45;5.28;;;;;;;18.47;34.51;102981.72;5202143;28;20034;-73
2022/04/16 13:42:33;;;;;;;7.22;6.10;;;;;;;18.55;33.57;102978.28;5202082;28;20034;-72
2022/04/16 13:45:05;;;;;;;7.35;5.93;;;;;;;18.55;33.68;102986.72;5201717;28;20340;-72
2022/04/16 13:47:36;;;;;;;6.43;5.72;;;;;;;18.60;33.55;102977.41;5202542;28;20105;-71
2022/04/16 13:50:08;;;;;;;6.63;5.13;;;;;;;18.75;34.17;102965.22;5191803;28;20034;-72
2022/04/16 13:52:40;;;;;;;7.35;5.35;;;;;;;18.93;32.60;102967.31;5199277;28;20026;-70
2022/04/16 13:55:11;;;;;;;7.43;5.18;;;;;;;18.88;33.26;102961.75;5197189;28;20030;-70
2022/04/16 13:57:43;;;;;;;5.55;5.05;;;;;;;18.99;34.35;102959.66;5180576;28;20082;-71
2022/04/16 14:00:14;;;;;;;14.20;12.73;;;;;;;18.85;32.82;102951.94;5181810;28;20334;-71
2022/04/16 14:02:45;;;;;;;18.60;16.60;;;;;;;18.70;33.15;102946.41;5190787;28;20032;-71
2022/04/16 14:08:06;;;;;;;7.40;4.50;;;;;;;18.92;33.21;102948.78;5202261;28;20042;-72
2022/04/16 14:10:42;;;;;;;5.47;4.80;;;;;;;19.13;33.12;102945.78;5201071;28;20035;-71
2022/04/16 14:13:14;;;;;;;6.30;5.57;;;;;;;19.08;31.90;102947.50;5197540;28;20497;-71
2022/04/16 14:15:45;;;;;;;9.85;7.47;;;;;;;19.20;31.72;102941.47;5188958;28;20105;-70
2022/04/16 14:18:17;;;;;;;6.05;5.32;;;;;;;18.71;30.99;102941.63;5181747;28;20023;-69
2022/04/16 14:20:48;;;;;;;7.50;5.50;;;;;;;18.96;30.30;102944.22;5184416;28;20045;-69
2022/04/16 14:23:21;;;;;;;5.32;4.80;;;;;;;18.85;30.58;102934.22;5188196;28;20030;-71
2022/04/16 14:25:52;;;;;;;8.65;5.53;;;;;;;18.95;31.18;102931.31;5200971;28;20026;-72
2022/04/16 14:28:23;;;;;;;6.15;5.28;;;;;;;19.00;30.71;102939.72;5201119;28;20084;-71
2022/04/16 14:30:56;;;;;;;6.07;5.57;;;;;;;19.06;31.39;102943.28;5201133;28;20030;-70
2022/04/16 14:33:28;;;;;;;6.40;5.00;;;;;;;19.07;31.75;102931.75;5200808;28;20525;-71
2022/04/16 14:36:03;;;;;;;6.10;5.40;;;;;;;19.16;32.03;102933.91;5193097;28;20109;-76
2022/04/16 14:38:39;;;;;;;6.75;6.05;;;;;;;19.10;30.87;102938.75;5185345;28;20514;-72
2022/04/16 14:41:10;;;;;;;10.43;5.70;;;;;;;19.14;31.09;102936.19;5180256;28;20034;-73
2022/04/16 14:43:48;;;;;;;7.30;6.20;;;;;;;19.01;31.62;102935.75;5181445;28;20027;-74
2022/04/16 14:46:19;;;;;;;7.75;5.47;;;;;;;19.03;31.58;102927.84;5192458;28;20388;-72
2022/04/16 14:48:55;;;;;;;5.97;5.22;;;;;;;18.85;30.48;102923.00;5196555;28;20130;-71
2022/04/16 14:51:29;;;;;;;7.93;6.90;;;;;;;19.01;31.76;102913.25;5191963;28;20049;-71
2022/04/16 14:54:00;;;;;;;6.57;5.65;;;;;;;18.90;32.87;102935.00;5190880;28;20018;-74
2022/04/16 14:56:32;;;;;;;6.63;6.03;;;;;;;18.96;31.32;102926.53;5200888;28;20019;-74
2022/04/16 14:59:04;;;;;;;7.07;6.35;;;;;;;19.02;31.86;102920.56;5201006;28;20421;-73
2022/04/16 15:01:35;;;;;;;8.05;7.25;;;;;;;18.85;30.71;102921.00;5195449;28;20319;-73
2022/04/16 15:04:06;;;;;;;7.07;6.38;;;;;;;18.95;32.29;102920.06;5184062;28;20053;-75
2022/04/16 15:06:38;;;;;;;9.07;7.15;;;;;;;18.83;32.41;102917.66;5198637;28;20031;-73
2022/04/16 15:09:09;;;;;;;6.50;5.78;;;;;;;18.77;32.76;102912.38;5179857;28;20030;-74
2022/04/16 15:11:41;;;;;;;8.15;7.30;;;;;;;18.63;32.03;102910.22;5197341;28;20084;-71
2022/04/16 15:14:12;;;;;;;10.48;8.23;;;;;;;18.74;32.00;102908.16;5191808;28;20070;-70
2022/04/16 15:16:43;;;;;;;8.25;7.45;;;;;;;18.63;32.92;102913.00;5180269;28;20039;-71
2022/04/16 15:19:15;;;;;;;9.02;7.75;;;;;;;18.62;31.97;102910.53;5180441;28;20027;-69
2022/04/16 15:21:46;;;;;;;9.70;7.70;;;;;;;18.47;32.65;102903.88;5188458;28;20537;-71
2022/04/16 15:24:20;;;;;;;9.50;8.20;;;;;;;18.55;33.23;102899.59;5200639;28;20462;-69
2022/04/16 15:26:51;;;;;;;8.05;7.25;;;;;;;18.44;32.45;102910.09;5198197;28;20390;-69
2022/04/16 15:29:23;;;;;;;10.40;7.50;;;;;;;18.34;31.78;102903.72;5193681;28;20022;-69
2022/04/16 15:31:54;;;;;;;9.35;7.00;;;;;;;18.49;33.11;102905.59;5199462;28;20053;-69
2022/04/16 15:34:25;;;;;;;10.10;7.35;;;;;;;18.40;32.18;102909.00;5199651;28;20359;-73
2022/04/16 15:36:57;;;;;;;10.45;9.07;;;;;;;18.51;32.78;102901.34;5199107;28;20042;-71
2022/04/16 15:39:30;;;;;;;10.43;8.60;;;;;;;18.27;33.49;102903.22;5200217;28;20056;-72
2022/04/16 15:42:03;;;;;;;7.90;7.10;;;;;;;18.31;33.09;102898.72;5200059;28;20153;-70
2022/04/16 15:44:34;;;;;;;9.18;7.47;;;;;;;18.21;34.18;102905.22;5192889;28;20026;-71
2022/04/16 15:47:06;;;;;;;9.63;7.95;;;;;;;18.19;33.72;102902.69;5179330;28;20061;-72
2022/04/16 15:49:37;;;;;;;11.75;8.35;;;;;;;18.27;33.91;102898.44;5179273;28;20058;-71
2022/04/16 15:52:08;;;;;;;8.82;6.75;;;;;;;18.33;33.63;102897.28;5180530;28;20027;-72
2022/04/16 15:54:43;;;;;;;23.13;20.75;;;;;;;18.26;33.02;102902.38;5180132;28;20039;-71
2022/04/16 15:57:16;;;;;;;8.38;7.50;;;;;;;18.38;33.82;102899.19;5179318;28;20050;-72
2022/04/16 15:59:53;;;;;;;8.30;7.47;;;;;;;18.39;33.36;102896.09;5180227;28;20047;-71
2022/04/16 16:02:25;;;;;;;7.93;6.90;;;;;;;18.45;33.59;102889.28;5180955;28;20041;-71
2022/04/16 16:05:00;;;;;;;8.98;7.70;;;;;;;18.32;32.76;102900.38;5187205;28;20015;-72
2022/04/16 16:07:34;;;;;;;9.90;8.90;;;;;;;18.11;32.79;102903.31;5180279;28;20077;-70
2022/04/16 16:10:12;;;;;;;9.63;8.73;;;;;;;18.12;33.19;102898.53;5180121;28;20035;-72
2022/04/16 16:12:47;;;;;;;9.40;8.48;;;;;;;18.03;33.39;102896.34;5180440;28;20411;-72
2022/04/16 16:15:18;;;;;;;8.35;7.38;;;;;;;18.19;33.58;102885.84;5180315;28;20399;-71
2022/04/16 16:17:49;;;;;;;10.05;7.82;;;;;;;18.04;32.84;102891.56;5180001;28;20054;-72
2022/04/16 16:20:21;;;;;;;8.57;7.75;;;;;;;18.10;33.72;102886.75;5182996;28;20023;-71
2022/04/16 16:22:52;;;;;;;10.52;8.07;;;;;;;18.03;32.34;102876.72;5183642;28;20054;-72
2022/04/16 16:25:23;;;;;;;7.55;6.85;;;;;;;18.23;32.26;102870.09;5183009;28;20494;-72
2022/04/16 16:27:55;;;;;;;8.20;7.07;;;;;;;18.21;32.62;102871.53;5184356;28;20029;-71
2022/04/16 16:30:27;;;;;;;8.43;7.35;;;;;;;18.37;31.93;102859.03;5183744;28;20034;-71
2022/04/16 16:32:59;;;;;;;8.25;7.15;;;;;;;18.43;32.90;102857.00;5183309;28;20521;-71
2022/04/16 16:35:31;;;;;;;9.60;8.02;;;;;;;18.23;33.48;102860.84;5190839;28;20027;-72
2022/04/16 16:38:02;;;;;;;10.10;7.80;;;;;;;18.02;31.40;102865.75;5204031;28;20037;-72
2022/04/16 16:40:37;;;;;;;11.25;6.88;;;;;;;18.03;33.34;102859.88;5203464;28;20034;-72
2022/04/16 16:43:09;;;;;;;10.30;9.23;;;;;;;18.13;32.04;102858.94;5204504;28;20377;-72
2022/04/16 16:45:40;;;;;;;9.10;7.60;;;;;;;18.09;32.53;102862.63;5203304;28;20022;-71
2022/04/16 16:48:12;;;;;;;8.32;7.53;;;;;;;18.08;33.29;102856.19;5204225;28;20533;-72
2022/04/16 16:50:43;;;;;;;8.52;6.78;;;;;;;18.05;32.95;102865.19;5203825;28;20026;-71
2022/04/16 16:53:14;;;;;;;9.23;7.93;;;;;;;17.84;31.46;102855.22;5202043;28;20482;-72
2022/04/16 16:55:46;;;;;;;8.10;7.20;;;;;;;18.03;32.64;102864.66;5203481;28;20473;-72
2022/04/16 16:58:20;;;;;;;9.77;8.77;;;;;;;18.06;33.17;102866.84;5203323;28;20512;-72
2022/04/16 17:00:51;;;;;;;7.63;6.80;;;;;;;18.04;31.57;102863.50;5202908;28;20441;-72
2022/04/16 17:06:12;;;;;;;8.50;7.57;;;;;;;18.03;31.96;102856.22;5203321;28;20535;-73
2022/04/16 17:08:44;;;;;;;11.98;6.40;;;;;;;17.91;31.95;102869.78;5201754;28;20114;-73
2022/04/16 17:11:17;;;;;;;6.97;6.28;;;;;;;17.93;31.67;102861.91;5183103;28;20134;-73
2022/04/16 17:13:49;;;;;;;6.82;6.13;;;;;;;17.85;31.02;102868.16;5182723;28;20050;-73
2022/04/16 17:19:10;;;;;;;7.22;5.45;;;;;;;17.75;33.73;102861.41;5183159;28;20043;-72
2022/04/16 17:21:41;;;;;;;7.20;6.10;;;;;;;17.73;32.37;102860.88;5182326;28;20023;-73
2022/04/16 17:24:12;;;;;;;11.02;5.70;;;;;;;17.51;31.74;102868.84;5182993;28;20062;-73
2022/04/16 17:26:44;;;;;;;8.95;5.70;;;;;;;17.35;32.00;102865.25;5183367;28;20394;-72
2022/04/16 17:29:15;;;;;;;5.20;4.70;;;;;;;17.38;32.44;102865.53;5181814;28;20031;-72
